Time;durP1;ratioP1;P1;durP2;ratioP2;P2;SDS_P1;SDS_P2;PMS_P1;PMS_P2;Temp;Humidity;BMP_temperature;BMP_pressure;BME280_temperature;BME280_humidity;BME280_pressure;Samples;Min_cycle;Max_cycle;Signal;HPM_P1;HPM_P2
2022/06/03 00:00:59;;;;;;;;;;;;;;;;;;331088;161;857513;-57
2022/06/03 00:02:01;;;;;;;;;;;;;;;;;;330842;160;855972;-56
2022/06/03 00:03:03;;;;;;;;;;;;;;;;;;331202;160;858252;-56
2022/06/03 00:04:04;;;;;;;;;;;;;;;;;;331275;160;856678;-56
2022/06/03 00:05:06;;;;;;;;;;;;;;;;;;330715;161;855736;-57
2022/06/03 00:06:07;;;;;;;;;;;;;;;;;;330852;161;855889;-57
2022/06/03 00:07:09;;;;;;;;;;;;;;;;;;331132;161;856523;-56
2022/06/03 00:08:10;;;;;;;;;;;;;;;;;;332311;161;855813;-58
2022/06/03 00:09:12;;;;;;;;;;;;;;;;;;331178;161;855881;-57
2022/06/03 00:10:15;;;;;;;;;;;;;;;;;;331786;161;857017;-57
2022/06/03 00:11:17;;;;;;;;;;;;;;;;;;330032;161;855858;-57
2022/06/03 00:12:18;;;;;;;;;;;;;;;;;;329848;161;858291;-57
2022/06/03 00:13:20;;;;;;;;;;;;;;;;;;330133;161;855905;-57
2022/06/03 00:14:21;;;;;;;;;;;;;;;;;;328785;161;857439;-57
2022/06/03 00:15:22;;;;;;;;;;;;;;;;;;330172;161;855933;-58
2022/06/03 00:16:24;;;;;;;;;;;;;;;;;;332846;161;856164;-57
2022/06/03 00:17:26;;;;;;;;;;;;;;;;;;331078;161;855905;-57
2022/06/03 00:18:27;;;;;;;;;;;;;;;;;;330309;161;857709;-57
2022/06/03 00:19:29;;;;;;;;;;;;;;;;;;330551;161;855252;-57
2022/06/03 00:20:31;;;;;;;;;;;;;;;;;;330602;161;856501;-57
2022/06/03 00:21:33;;;;;;;;;;;;;;;;;;331458;161;855840;-57
2022/06/03 00:22:35;;;;;;;;;;;;;;;;;;330669;161;855731;-55
2022/06/03 00:23:36;;;;;;;;;;;;;;;;;;331251;161;855808;-58
2022/06/03 00:24:37;;;;;;;;;;;;;;;;;;330591;161;854915;-57
2022/06/03 00:25:39;;;;;;;;;;;;;;;;;;331065;161;855852;-57
2022/06/03 00:26:40;;;;;;;;;;;;;;;;;;330539;161;855973;-57
2022/06/03 00:27:42;;;;;;;;;;;;;;;;;;331893;161;855429;-57
2022/06/03 00:28:43;;;;;;;;;;;;;;;;;;330605;161;855800;-57
2022/06/03 00:29:44;;;;;;;;;;;;;;;;;;331019;161;856761;-57
2022/06/03 00:30:46;;;;;;;;;;;;;;;;;;330856;160;855846;-58
2022/06/03 00:31:48;;;;;;;;;;;;;;;;;;330246;161;855894;-57
2022/06/03 00:32:49;;;;;;;;;;;;;;;;;;331121;161;855879;-57
2022/06/03 00:33:51;;;;;;;;;;;;;;;;;;331546;161;858029;-57
2022/06/03 00:34:52;;;;;;;;;;;;;;;;;;332133;161;855831;-57
2022/06/03 00:35:54;;;;;;;;;;;;;;;;;;330395;161;856273;-56
2022/06/03 00:36:55;;;;;;;;;;;;;;;;;;329738;161;855846;-57
2022/06/03 00:37:56;;;;;;;;;;;;;;;;;;331194;161;856212;-57
2022/06/03 00:38:58;;;;;;;;;;;;;;;;;;330223;161;855841;-57
2022/06/03 00:39:59;;;;;;;;;;;;;;;;;;331931;161;856450;-58
2022/06/03 00:41:01;;;;;;;;;;;;;;;;;;330450;161;855898;-57
2022/06/03 00:42:02;;;;;;;;;;;;;;;;;;328989;161;857371;-59
2022/06/03 00:43:03;;;;;;;;;;;;;;;;;;330060;161;855776;-59
2022/06/03 00:44:05;;;;;;;;;;;;;;;;;;328851;161;856317;-56
2022/06/03 00:45:08;;;;;;;;;;;;;;;;;;331088;161;855075;-57
2022/06/03 00:46:10;;;;;;;;;;;;;;;;;;331817;161;856109;-58
2022/06/03 00:47:11;;;;;;;;;;;;;;;;;;330856;161;856867;-58
2022/06/03 00:48:12;;;;;;;;;;;;;;;;;;329958;161;855754;-57
2022/06/03 00:49:14;;;;;;;;;;;;;;;;;;328682;161;856676;-58
2022/06/03 00:50:15;;;;;;;;;;;;;;;;;;331174;161;855988;-58
2022/06/03 00:51:16;;;;;;;;;;;;;;;;;;330005;161;855827;-58
2022/06/03 00:52:18;;;;;;;;;;;;;;;;;;330160;161;855872;-57
2022/06/03 00:53:19;;;;;;;;;;;;;;;;;;331033;161;856039;-57
2022/06/03 00:54:21;;;;;;;;;;;;;;;;;;330556;161;856442;-58
2022/06/03 00:55:23;;;;;;;;;;;;;;;;;;329473;161;856665;-59
2022/06/03 00:56:24;;;;;;;;;;;;;;;;;;330820;161;855922;-59
2022/06/03 00:57:25;;;;;;;;;;;;;;;;;;331317;161;857417;-59
2022/06/03 00:58:27;;;;;;;;;;;;;;;;;;329975;161;855983;-57
2022/06/03 00:59:29;;;;;;;;;;;;;;;;;;331889;161;855359;-57
2022/06/03 01:00:30;;;;;;;;;;;;;;;;;;330535;161;855287;-58
2022/06/03 01:01:32;;;;;;;;;;;;;;;;;;329708;161;855180;-57
2022/06/03 01:02:34;;;;;;;;;;;;;;;;;;330688;161;855890;-56
2022/06/03 01:03:35;;;;;;;;;;;;;;;;;;329488;164;857644;-57
2022/06/03 01:04:37;;;;;;;;;;;;;;;;;;329295;161;856031;-57
2022/06/03 01:05:38;;;;;;;;;;;;;;;;;;330020;161;855839;-58
2022/06/03 01:06:39;;;;;;;;;;;;;;;;;;329596;161;855877;-57
2022/06/03 01:07:41;;;;;;;;;;;;;;;;;;329755;161;857624;-57
2022/06/03 01:08:43;;;;;;;;;;;;;;;;;;330525;161;855780;-57
2022/06/03 01:09:44;;;;;;;;;;;;;;;;;;331145;161;856567;-58
2022/06/03 01:10:45;;;;;;;;;;;;;;;;;;329110;161;855732;-57
2022/06/03 01:11:47;;;;;;;;;;;;;;;;;;330233;161;856163;-57
2022/06/03 01:12:48;;;;;;;;;;;;;;;;;;329868;161;855882;-57
2022/06/03 01:13:49;;;;;;;;;;;;;;;;;;330845;161;857729;-57
2022/06/03 01:14:51;;;;;;;;;;;;;;;;;;328356;161;855882;-59
2022/06/03 01:15:52;;;;;;;;;;;;;;;;;;329526;162;856821;-57
2022/06/03 01:16:53;;;;;;;;;;;;;;;;;;329540;161;855759;-57
2022/06/03 01:17:55;;;;;;;;;;;;;;;;;;327851;161;856425;-58
2022/06/03 01:18:56;;;;;;;;;;;;;;;;;;329710;161;855951;-57
2022/06/03 01:20:00;;;;;;;;;;;;;;;;;;329672;161;856746;-57
2022/06/03 01:21:01;;;;;;;;;;;;;;;;;;329662;161;855863;-57
2022/06/03 01:22:02;;;;;;;;;;;;;;;;;;329251;161;855863;-57
2022/06/03 01:23:04;;;;;;;;;;;;;;;;;;330859;161;856003;-58
2022/06/03 01:24:05;;;;;;;;;;;;;;;;;;330090;161;855746;-57
2022/06/03 01:25:07;;;;;;;;;;;;;;;;;;327206;161;858031;-57
2022/06/03 01:26:09;;;;;;;;;;;;;;;;;;329277;161;855785;-56
2022/06/03 01:27:10;;;;;;;;;;;;;;;;;;329885;162;857207;-57
2022/06/03 01:28:12;;;;;;;;;;;;;;;;;;329875;161;855836;-57
2022/06/03 01:29:13;;;;;;;;;;;;;;;;;;329586;161;856618;-57
2022/06/03 01:30:14;;;;;;;;;;;;;;;;;;329063;161;856287;-58
2022/06/03 01:31:16;;;;;;;;;;;;;;;;;;329235;161;857702;-57
2022/06/03 01:32:17;;;;;;;;;;;;;;;;;;331348;161;855949;-57
2022/06/03 01:33:18;;;;;;;;;;;;;;;;;;329679;161;855912;-56
2022/06/03 01:34:20;;;;;;;;;;;;;;;;;;330274;161;855877;-57
2022/06/03 01:35:21;;;;;;;;;;;;;;;;;;329689;161;856150;-58
2022/06/03 01:36:23;;;;;;;;;;;;;;;;;;329782;161;855905;-57
2022/06/03 01:37:24;;;;;;;;;;;;;;;;;;327453;161;856428;-56
2022/06/03 01:38:25;;;;;;;;;;;;;;;;;;328443;162;855988;-58
2022/06/03 01:39:27;;;;;;;;;;;;;;;;;;329881;161;856572;-59
2022/06/03 01:40:28;;;;;;;;;;;;;;;;;;329342;164;855347;-60
2022/06/03 01:41:30;;;;;;;;;;;;;;;;;;330184;161;856041;-59
2022/06/03 01:42:32;;;;;;;;;;;;;;;;;;330313;161;855893;-58
2022/06/03 01:43:34;;;;;;;;;;;;;;;;;;328435;161;855892;-58
2022/06/03 01:44:35;;;;;;;;;;;;;;;;;;330010;161;855698;-58
2022/06/03 01:45:36;;;;;;;;;;;;;;;;;;328721;161;855302;-57
2022/06/03 01:46:38;;;;;;;;;;;;;;;;;;329957;161;855812;-57
2022/06/03 01:47:39;;;;;;;;;;;;;;;;;;329863;161;855152;-57
2022/06/03 01:48:40;;;;;;;;;;;;;;;;;;329780;161;855192;-58
2022/06/03 01:49:42;;;;;;;;;;;;;;;;;;329239;161;855824;-57
2022/06/03 01:50:43;;;;;;;;;;;;;;;;;;330581;161;855799;-57
2022/06/03 01:51:45;;;;;;;;;;;;;;;;;;330092;161;855929;-57
2022/06/03 01:52:46;;;;;;;;;;;;;;;;;;329870;161;857510;-57
2022/06/03 01:53:47;;;;;;;;;;;;;;;;;;330428;161;855821;-58
2022/06/03 01:54:49;;;;;;;;;;;;;;;;;;329645;163;855936;-58
2022/06/03 01:55:50;;;;;;;;;;;;;;;;;;329190;161;856423;-58
2022/06/03 01:56:52;;;;;;;;;;;;;;;;;;329739;161;855860;-58
2022/06/03 01:57:53;;;;;;;;;;;;;;;;;;329698;162;857164;-57
2022/06/03 01:58:54;;;;;;;;;;;;;;;;;;328799;162;855790;-58
2022/06/03 01:59:55;;;;;;;;;;;;;;;;;;329898;160;855910;-57
2022/06/03 02:00:57;;;;;;;;;;;;;;;;;;330149;161;856858;-57
2022/06/03 02:01:58;;;;;;;;;;;;;;;;;;333076;161;855810;-57
2022/06/03 02:03:00;;;;;;;;;;;;;;;;;;334438;159;857822;-57
2022/06/03 02:04:01;;;;;;;;;;;;;;;;;;334430;161;856350;-59
2022/06/03 02:05:02;;;;;;;;;;;;;;;;;;333642;159;856316;-57
2022/06/03 02:06:04;;;;;;;;;;;;;;;;;;334344;159;855930;-57
2022/06/03 02:07:05;;;;;;;;;;;;;;;;;;333948;159;855803;-57
2022/06/03 02:08:07;;;;;;;;;;;;;;;;;;334226;159;855887;-57
2022/06/03 02:09:09;;;;;;;;;;;;;;;;;;335027;159;856482;-57
2022/06/03 02:10:10;;;;;;;;;;;;;;;;;;335518;159;855809;-57
2022/06/03 02:11:11;;;;;;;;;;;;;;;;;;334010;159;855768;-57
2022/06/03 02:12:13;;;;;;;;;;;;;;;;;;332692;159;856510;-57
2022/06/03 02:13:14;;;;;;;;;;;;;;;;;;333399;160;855791;-57
2022/06/03 02:14:16;;;;;;;;;;;;;;;;;;334248;159;856067;-57
2022/06/03 02:15:17;;;;;;;;;;;;;;;;;;332238;159;855875;-57
2022/06/03 02:16:19;;;;;;;;;;;;;;;;;;334375;159;855939;-57
2022/06/03 02:17:20;;;;;;;;;;;;;;;;;;334382;159;856010;-57
2022/06/03 02:18:22;;;;;;;;;;;;;;;;;;334396;159;855925;-58
2022/06/03 02:19:23;;;;;;;;;;;;;;;;;;334599;159;856026;-58
2022/06/03 02:20:24;;;;;;;;;;;;;;;;;;334395;160;855892;-57
2022/06/03 02:21:26;;;;;;;;;;;;;;;;;;331876;159;856899;-57
2022/06/03 02:22:27;;;;;;;;;;;;;;;;;;334794;159;855977;-57
2022/06/03 02:23:28;;;;;;;;;;;;;;;;;;334200;159;855707;-57
2022/06/03 02:24:30;;;;;;;;;;;;;;;;;;333789;159;855506;-57
2022/06/03 02:25:31;;;;;;;;;;;;;;;;;;331909;159;855883;-57
2022/06/03 02:26:33;;;;;;;;;;;;;;;;;;334315;159;855059;-58
2022/06/03 02:27:34;;;;;;;;;;;;;;;;;;334462;159;855852;-57
2022/06/03 02:28:36;;;;;;;;;;;;;;;;;;334216;159;856551;-57
2022/06/03 02:30:57;;;;;;;;;;;;;;;;;;334525;162;855787;-57
2022/06/03 02:31:58;;;;;;;;;;;;;;;;;;334547;159;855905;-57
2022/06/03 02:33:00;;;;;;;;;;;;;;;;;;331818;159;857653;-57
2022/06/03 02:34:01;;;;;;;;;;;;;;;;;;335379;159;855828;-57
2022/06/03 02:35:03;;;;;;;;;;;;;;;;;;332793;159;856772;-58
2022/06/03 02:36:04;;;;;;;;;;;;;;;;;;333988;159;855924;-57
2022/06/03 02:37:05;;;;;;;;;;;;;;;;;;335286;159;856300;-57
2022/06/03 02:38:07;;;;;;;;;;;;;;;;;;334695;159;855810;-57
2022/06/03 02:39:08;;;;;;;;;;;;;;;;;;333898;159;856727;-57
2022/06/03 02:40:10;;;;;;;;;;;;;;;;;;333501;159;855863;-57
2022/06/03 02:41:11;;;;;;;;;;;;;;;;;;334478;159;856212;-57
2022/06/03 02:42:13;;;;;;;;;;;;;;;;;;334630;160;855746;-57
2022/06/03 02:43:14;;;;;;;;;;;;;;;;;;334592;159;857687;-55
2022/06/03 02:44:15;;;;;;;;;;;;;;;;;;334633;160;857421;-57
2022/06/03 02:45:17;;;;;;;;;;;;;;;;;;336095;159;855917;-57
2022/06/03 02:46:18;;;;;;;;;;;;;;;;;;337251;158;855757;-57
2022/06/03 02:47:20;;;;;;;;;;;;;;;;;;334095;159;856416;-58
2022/06/03 02:48:21;;;;;;;;;;;;;;;;;;336532;159;855903;-59
2022/06/03 02:49:23;;;;;;;;;;;;;;;;;;335008;159;855973;-57
2022/06/03 02:50:25;;;;;;;;;;;;;;;;;;334850;159;855886;-57
2022/06/03 02:51:26;;;;;;;;;;;;;;;;;;332805;159;857917;-58
2022/06/03 02:52:28;;;;;;;;;;;;;;;;;;335311;159;855275;-57
2022/06/03 02:53:29;;;;;;;;;;;;;;;;;;334379;159;858193;-57
2022/06/03 02:54:31;;;;;;;;;;;;;;;;;;334582;159;857643;-57
2022/06/03 02:55:34;;;;;;;;;;;;;;;;;;335115;159;855351;-58
2022/06/03 02:56:35;;;;;;;;;;;;;;;;;;332897;159;855792;-57
2022/06/03 02:57:37;;;;;;;;;;;;;;;;;;332826;159;856761;-57
2022/06/03 02:58:39;;;;;;;;;;;;;;;;;;335518;159;855902;-57
2022/06/03 02:59:41;;;;;;;;;;;;;;;;;;335811;159;856200;-57
2022/06/03 03:00:42;;;;;;;;;;;;;;;;;;334093;159;856632;-57
2022/06/03 03:01:44;;;;;;;;;;;;;;;;;;334257;159;855862;-57
2022/06/03 03:02:45;;;;;;;;;;;;;;;;;;331512;161;855783;-57
2022/06/03 03:03:47;;;;;;;;;;;;;;;;;;329112;163;855978;-58
2022/06/03 03:04:48;;;;;;;;;;;;;;;;;;329630;162;855879;-57
2022/06/03 03:05:50;;;;;;;;;;;;;;;;;;331865;162;857604;-58
2022/06/03 03:06:51;;;;;;;;;;;;;;;;;;330920;159;855064;-58
2022/06/03 03:07:52;;;;;;;;;;;;;;;;;;328897;162;855998;-58
2022/06/03 03:08:54;;;;;;;;;;;;;;;;;;327447;162;855863;-58
2022/06/03 03:09:56;;;;;;;;;;;;;;;;;;329051;162;857580;-57
2022/06/03 03:10:57;;;;;;;;;;;;;;;;;;329061;161;855882;-57
2022/06/03 03:11:58;;;;;;;;;;;;;;;;;;328342;162;857583;-55
2022/06/03 03:13:00;;;;;;;;;;;;;;;;;;329726;162;855882;-57
2022/06/03 03:14:01;;;;;;;;;;;;;;;;;;328538;162;856555;-57
2022/06/03 03:15:03;;;;;;;;;;;;;;;;;;330035;162;855955;-57
2022/06/03 03:16:05;;;;;;;;;;;;;;;;;;328854;162;855871;-56
2022/06/03 03:17:06;;;;;;;;;;;;;;;;;;328658;162;855709;-55
2022/06/03 03:18:08;;;;;;;;;;;;;;;;;;328715;162;857609;-56
2022/06/03 03:19:09;;;;;;;;;;;;;;;;;;328714;162;855858;-60
2022/06/03 03:20:10;;;;;;;;;;;;;;;;;;328775;162;855686;-57
2022/06/03 03:21:12;;;;;;;;;;;;;;;;;;331663;162;855881;-57
2022/06/03 03:22:13;;;;;;;;;;;;;;;;;;328484;162;855810;-58
2022/06/03 03:23:16;;;;;;;;;;;;;;;;;;331613;161;855958;-58
2022/06/03 03:24:17;;;;;;;;;;;;;;;;;;329366;162;855863;-55
2022/06/03 03:25:19;;;;;;;;;;;;;;;;;;329308;162;855999;-55
2022/06/03 03:26:20;;;;;;;;;;;;;;;;;;328986;162;855982;-58
2022/06/03 03:27:22;;;;;;;;;;;;;;;;;;328626;162;856559;-58
2022/06/03 03:28:23;;;;;;;;;;;;;;;;;;330762;162;855909;-58
2022/06/03 03:29:24;;;;;;;;;;;;;;;;;;329281;162;857687;-58
2022/06/03 03:30:26;;;;;;;;;;;;;;;;;;329387;162;856040;-57
2022/06/03 03:31:27;;;;;;;;;;;;;;;;;;328990;162;855893;-58
2022/06/03 03:32:29;;;;;;;;;;;;;;;;;;331563;160;855304;-58
2022/06/03 03:33:30;;;;;;;;;;;;;;;;;;330238;162;855965;-57
2022/06/03 03:34:32;;;;;;;;;;;;;;;;;;329630;162;855892;-57
2022/06/03 03:35:33;;;;;;;;;;;;;;;;;;331101;161;857079;-57
2022/06/03 03:36:35;;;;;;;;;;;;;;;;;;328818;162;855426;-57
2022/06/03 03:37:36;;;;;;;;;;;;;;;;;;330336;162;855080;-56
2022/06/03 03:38:38;;;;;;;;;;;;;;;;;;330088;162;854979;-56
2022/06/03 03:39:39;;;;;;;;;;;;;;;;;;328588;162;855214;-57
2022/06/03 03:40:40;;;;;;;;;;;;;;;;;;328567;162;854909;-58
2022/06/03 03:41:42;;;;;;;;;;;;;;;;;;329526;162;855039;-57
2022/06/03 03:42:43;;;;;;;;;;;;;;;;;;330599;162;855071;-57
2022/06/03 03:43:45;;;;;;;;;;;;;;;;;;329243;162;855026;-57
2022/06/03 03:44:46;;;;;;;;;;;;;;;;;;329959;162;855043;-56
2022/06/03 03:45:47;;;;;;;;;;;;;;;;;;328648;162;855189;-57
2022/06/03 03:46:49;;;;;;;;;;;;;;;;;;330852;162;856953;-57
2022/06/03 03:47:50;;;;;;;;;;;;;;;;;;331454;159;855213;-58
2022/06/03 03:48:51;;;;;;;;;;;;;;;;;;330519;161;855086;-57
2022/06/03 03:49:53;;;;;;;;;;;;;;;;;;329532;162;855006;-59
2022/06/03 03:50:54;;;;;;;;;;;;;;;;;;329217;162;854955;-58
2022/06/03 03:51:56;;;;;;;;;;;;;;;;;;329643;162;854944;-59
2022/06/03 03:52:57;;;;;;;;;;;;;;;;;;328937;162;855537;-57
2022/06/03 03:53:59;;;;;;;;;;;;;;;;;;330167;162;855048;-57
2022/06/03 03:55:00;;;;;;;;;;;;;;;;;;329265;162;854914;-58
2022/06/03 03:56:02;;;;;;;;;;;;;;;;;;330378;162;854911;-58
2022/06/03 03:57:03;;;;;;;;;;;;;;;;;;329301;162;854997;-58
2022/06/03 03:58:05;;;;;;;;;;;;;;;;;;329071;162;855414;-57
2022/06/03 03:59:07;;;;;;;;;;;;;;;;;;329459;162;855326;-59
2022/06/03 04:00:08;;;;;;;;;;;;;;;;;;329760;162;855082;-58
2022/06/03 04:01:10;;;;;;;;;;;;;;;;;;329187;162;854956;-58
2022/06/03 04:02:11;;;;;;;;;;;;;;;;;;329394;162;854986;-57
2022/06/03 04:03:13;;;;;;;;;;;;;;;;;;334457;159;854903;-58
2022/06/03 04:04:14;;;;;;;;;;;;;;;;;;335437;159;855018;-59
2022/06/03 04:05:16;;;;;;;;;;;;;;;;;;335646;159;854909;-58
2022/06/03 04:06:17;;;;;;;;;;;;;;;;;;335324;159;855152;-57
2022/06/03 04:07:25;;;;;;;;;;;;;;;;;;335874;160;855131;-59
2022/06/03 04:08:36;;;;;;;;;;;;;;;;;;328170;159;855629;-58
2022/06/03 04:09:37;;;;;;;;;;;;;;;;;;334204;159;855619;-59
2022/06/03 04:10:38;;;;;;;;;;;;;;;;;;334229;159;854922;-60
2022/06/03 04:11:40;;;;;;;;;;;;;;;;;;334088;159;854977;-59
2022/06/03 04:12:41;;;;;;;;;;;;;;;;;;335093;159;855084;-58
2022/06/03 04:13:42;;;;;;;;;;;;;;;;;;334721;159;855555;-57
2022/06/03 04:14:45;;;;;;;;;;;;;;;;;;335191;159;854927;-59
2022/06/03 04:15:46;;;;;;;;;;;;;;;;;;335774;159;854944;-59
2022/06/03 04:16:48;;;;;;;;;;;;;;;;;;335370;159;855647;-58
2022/06/03 04:17:49;;;;;;;;;;;;;;;;;;334414;159;855997;-59
2022/06/03 04:18:50;;;;;;;;;;;;;;;;;;333899;159;855720;-57
2022/06/03 04:19:52;;;;;;;;;;;;;;;;;;334416;159;855034;-59
2022/06/03 04:20:53;;;;;;;;;;;;;;;;;;335394;159;854926;-56
2022/06/03 04:21:55;;;;;;;;;;;;;;;;;;335668;159;855762;-59
2022/06/03 04:22:59;;;;;;;;;;;;;;;;;;335391;159;855680;-59
2022/06/03 04:24:00;;;;;;;;;;;;;;;;;;334746;159;854974;-58
2022/06/03 04:25:01;;;;;;;;;;;;;;;;;;334671;159;854956;-59
2022/06/03 04:26:03;;;;;;;;;;;;;;;;;;334133;159;855903;-60
2022/06/03 04:27:04;;;;;;;;;;;;;;;;;;334972;159;854911;-58
2022/06/03 04:28:05;;;;;;;;;;;;;;;;;;335543;157;855726;-57
2022/06/03 04:29:07;;;;;;;;;;;;;;;;;;333762;159;856268;-58
2022/06/03 04:30:08;;;;;;;;;;;;;;;;;;334369;159;857762;-59
2022/06/03 04:31:09;;;;;;;;;;;;;;;;;;334561;158;856068;-59
2022/06/03 04:32:11;;;;;;;;;;;;;;;;;;335588;159;855901;-59
2022/06/03 04:33:12;;;;;;;;;;;;;;;;;;333256;159;856783;-58
2022/06/03 04:34:13;;;;;;;;;;;;;;;;;;335383;159;855744;-58
2022/06/03 04:35:15;;;;;;;;;;;;;;;;;;333977;159;855762;-59
2022/06/03 04:36:17;;;;;;;;;;;;;;;;;;333323;159;856318;-59
2022/06/03 04:37:18;;;;;;;;;;;;;;;;;;335598;159;855958;-59
2022/06/03 04:38:19;;;;;;;;;;;;;;;;;;334437;159;855865;-61
2022/06/03 04:39:21;;;;;;;;;;;;;;;;;;334686;159;856596;-60
2022/06/03 04:40:22;;;;;;;;;;;;;;;;;;334770;159;855953;-57
2022/06/03 04:41:24;;;;;;;;;;;;;;;;;;334733;159;856212;-59
2022/06/03 04:42:25;;;;;;;;;;;;;;;;;;335181;159;855981;-59
2022/06/03 04:43:27;;;;;;;;;;;;;;;;;;334591;159;855138;-57
2022/06/03 04:44:28;;;;;;;;;;;;;;;;;;334652;159;855326;-58
2022/06/03 04:45:29;;;;;;;;;;;;;;;;;;335213;159;855115;-59
2022/06/03 04:46:31;;;;;;;;;;;;;;;;;;335195;159;856416;-59
2022/06/03 04:47:32;;;;;;;;;;;;;;;;;;334541;159;855167;-59
2022/06/03 04:48:34;;;;;;;;;;;;;;;;;;328995;162;854976;-59
2022/06/03 04:49:35;;;;;;;;;;;;;;;;;;328009;162;855895;-59
2022/06/03 04:50:36;;;;;;;;;;;;;;;;;;335045;159;855694;-60
2022/06/03 04:51:38;;;;;;;;;;;;;;;;;;335859;159;855693;-58
2022/06/03 04:52:39;;;;;;;;;;;;;;;;;;334637;159;855256;-58
2022/06/03 04:53:41;;;;;;;;;;;;;;;;;;334603;159;855930;-59
2022/06/03 04:54:42;;;;;;;;;;;;;;;;;;335306;159;855432;-59
2022/06/03 04:55:43;;;;;;;;;;;;;;;;;;334558;159;854954;-58
2022/06/03 04:56:44;;;;;;;;;;;;;;;;;;334501;159;854931;-58
2022/06/03 04:57:46;;;;;;;;;;;;;;;;;;333844;159;855427;-60
2022/06/03 04:58:47;;;;;;;;;;;;;;;;;;335221;159;855037;-58
2022/06/03 04:59:48;;;;;;;;;;;;;;;;;;334825;159;858041;-61
2022/06/03 05:00:50;;;;;;;;;;;;;;;;;;335582;159;855866;-58
2022/06/03 05:01:51;;;;;;;;;;;;;;;;;;335682;159;855672;-60
2022/06/03 05:02:53;;;;;;;;;;;;;;;;;;335861;159;855561;-59
2022/06/03 05:03:54;;;;;;;;;;;;;;;;;;334273;159;855891;-61
2022/06/03 05:04:56;;;;;;;;;;;;;;;;;;335344;159;855001;-58
2022/06/03 05:05:57;;;;;;;;;;;;;;;;;;335988;159;855940;-58
2022/06/03 05:06:59;;;;;;;;;;;;;;;;;;334896;159;856751;-59
2022/06/03 05:08:00;;;;;;;;;;;;;;;;;;334556;159;855859;-60
2022/06/03 05:09:01;;;;;;;;;;;;;;;;;;334209;159;856089;-60
2022/06/03 05:10:03;;;;;;;;;;;;;;;;;;334876;159;856413;-59
2022/06/03 05:11:05;;;;;;;;;;;;;;;;;;334005;159;857591;-60
2022/06/03 05:12:06;;;;;;;;;;;;;;;;;;334347;159;855824;-59
2022/06/03 05:13:07;;;;;;;;;;;;;;;;;;334988;159;857620;-59
2022/06/03 05:14:09;;;;;;;;;;;;;;;;;;335355;159;855835;-59
2022/06/03 05:15:10;;;;;;;;;;;;;;;;;;335438;159;857601;-59
2022/06/03 05:16:11;;;;;;;;;;;;;;;;;;335387;159;856000;-59
2022/06/03 05:17:13;;;;;;;;;;;;;;;;;;334754;157;857535;-60
2022/06/03 05:18:14;;;;;;;;;;;;;;;;;;335530;159;855832;-60
2022/06/03 05:19:17;;;;;;;;;;;;;;;;;;328992;161;856609;-60
2022/06/03 05:20:18;;;;;;;;;;;;;;;;;;334371;159;854946;-61
2022/06/03 05:21:19;;;;;;;;;;;;;;;;;;338206;159;855095;-62
2022/06/03 05:22:21;;;;;;;;;;;;;;;;;;336823;159;855140;-61
2022/06/03 05:23:22;;;;;;;;;;;;;;;;;;329955;161;855673;-60
2022/06/03 05:24:23;;;;;;;;;;;;;;;;;;331730;160;855086;-60
2022/06/03 05:25:25;;;;;;;;;;;;;;;;;;334349;159;855078;-61
2022/06/03 05:26:26;;;;;;;;;;;;;;;;;;334322;159;855293;-61
2022/06/03 05:27:27;;;;;;;;;;;;;;;;;;337809;159;855061;-60
2022/06/03 05:28:29;;;;;;;;;;;;;;;;;;335634;159;855047;-60
2022/06/03 05:29:30;;;;;;;;;;;;;;;;;;335600;159;855605;-60
2022/06/03 05:30:31;;;;;;;;;;;;;;;;;;335111;159;854905;-60
2022/06/03 05:31:34;;;;;;;;;;;;;;;;;;335356;159;855884;-61
2022/06/03 05:32:36;;;;;;;;;;;;;;;;;;338106;159;857560;-60
2022/06/03 05:33:37;;;;;;;;;;;;;;;;;;333005;159;857304;-60
2022/06/03 05:34:38;;;;;;;;;;;;;;;;;;329434;160;855888;-60
2022/06/03 05:35:40;;;;;;;;;;;;;;;;;;335339;159;856024;-60
2022/06/03 05:36:41;;;;;;;;;;;;;;;;;;336047;160;855858;-60
2022/06/03 05:37:43;;;;;;;;;;;;;;;;;;336947;160;858137;-60
2022/06/03 05:38:44;;;;;;;;;;;;;;;;;;333375;159;855767;-60
2022/06/03 05:39:45;;;;;;;;;;;;;;;;;;329771;159;856623;-60
2022/06/03 05:40:47;;;;;;;;;;;;;;;;;;334256;159;854935;-60
2022/06/03 05:43:09;;;;;;;;;;;;;;;;;;334475;159;855738;-60
2022/06/03 05:44:10;;;;;;;;;;;;;;;;;;335198;159;855845;-60
2022/06/03 05:45:11;;;;;;;;;;;;;;;;;;333780;159;857571;-60
2022/06/03 05:46:13;;;;;;;;;;;;;;;;;;334655;161;855723;-60
2022/06/03 05:47:15;;;;;;;;;;;;;;;;;;334927;159;855647;-60
2022/06/03 05:48:16;;;;;;;;;;;;;;;;;;334655;159;857555;-61
2022/06/03 05:49:17;;;;;;;;;;;;;;;;;;334463;159;855819;-61
2022/06/03 05:50:19;;;;;;;;;;;;;;;;;;337761;159;856466;-61
2022/06/03 05:51:20;;;;;;;;;;;;;;;;;;335571;159;856002;-60
2022/06/03 05:52:21;;;;;;;;;;;;;;;;;;333789;159;856519;-59
2022/06/03 05:53:23;;;;;;;;;;;;;;;;;;335685;159;855912;-61
2022/06/03 05:54:24;;;;;;;;;;;;;;;;;;334952;159;857049;-61
2022/06/03 05:55:25;;;;;;;;;;;;;;;;;;333222;159;855917;-61
2022/06/03 05:56:27;;;;;;;;;;;;;;;;;;333852;159;857792;-61
2022/06/03 05:57:28;;;;;;;;;;;;;;;;;;337439;159;855972;-61
2022/06/03 05:58:29;;;;;;;;;;;;;;;;;;337063;159;857512;-60
2022/06/03 05:59:31;;;;;;;;;;;;;;;;;;332846;159;855968;-60
2022/06/03 06:00:32;;;;;;;;;;;;;;;;;;334032;159;856341;-59
2022/06/03 06:01:33;;;;;;;;;;;;;;;;;;335176;159;855952;-59
2022/06/03 06:02:35;;;;;;;;;;;;;;;;;;334583;159;856741;-59
2022/06/03 06:03:36;;;;;;;;;;;;;;;;;;329620;159;855808;-60
2022/06/03 06:04:38;;;;;;;;;;;;;;;;;;334798;160;854926;-59
2022/06/03 06:05:39;;;;;;;;;;;;;;;;;;335412;159;855855;-59
2022/06/03 06:06:40;;;;;;;;;;;;;;;;;;330151;159;855298;-59
2022/06/03 06:07:42;;;;;;;;;;;;;;;;;;332658;159;854996;-59
2022/06/03 06:08:44;;;;;;;;;;;;;;;;;;333887;159;854962;-63
2022/06/03 06:09:46;;;;;;;;;;;;;;;;;;333653;159;855760;-59
2022/06/03 06:10:47;;;;;;;;;;;;;;;;;;333583;159;855007;-60
2022/06/03 06:11:48;;;;;;;;;;;;;;;;;;335101;160;855182;-60
2022/06/03 06:12:50;;;;;;;;;;;;;;;;;;333199;159;857193;-59
2022/06/03 06:13:51;;;;;;;;;;;;;;;;;;333110;159;856004;-59
2022/06/03 06:14:52;;;;;;;;;;;;;;;;;;324544;164;857126;-59
2022/06/03 06:15:54;;;;;;;;;;;;;;;;;;333497;159;855876;-60
2022/06/03 06:16:55;;;;;;;;;;;;;;;;;;332564;159;855904;-58
2022/06/03 06:17:56;;;;;;;;;;;;;;;;;;333373;159;855794;-60
2022/06/03 06:18:58;;;;;;;;;;;;;;;;;;333262;159;856492;-59
2022/06/03 06:19:59;;;;;;;;;;;;;;;;;;332848;159;855877;-59
2022/06/03 06:21:01;;;;;;;;;;;;;;;;;;333952;160;856020;-60
2022/06/03 06:22:03;;;;;;;;;;;;;;;;;;333493;159;855043;-60
2022/06/03 06:23:05;;;;;;;;;;;;;;;;;;318970;166;855955;-59
2022/06/03 06:24:06;;;;;;;;;;;;;;;;;;321000;166;855971;-59
2022/06/03 06:25:08;;;;;;;;;;;;;;;;;;336370;157;855954;-59
2022/06/03 06:26:09;;;;;;;;;;;;;;;;;;336955;158;857662;-59
2022/06/03 06:27:12;;;;;;;;;;;;;;;;;;336405;158;855916;-58
2022/06/03 06:28:13;;;;;;;;;;;;;;;;;;336478;158;855905;-58
2022/06/03 06:29:14;;;;;;;;;;;;;;;;;;337068;158;855744;-58
2022/06/03 06:30:16;;;;;;;;;;;;;;;;;;336181;158;856356;-60
2022/06/03 06:31:17;;;;;;;;;;;;;;;;;;336195;158;857511;-59
2022/06/03 06:32:19;;;;;;;;;;;;;;;;;;336230;158;857758;-60
2022/06/03 06:33:20;;;;;;;;;;;;;;;;;;335722;158;856338;-62
2022/06/03 06:34:21;;;;;;;;;;;;;;;;;;336377;158;855288;-58
2022/06/03 06:35:23;;;;;;;;;;;;;;;;;;335991;158;855939;-59
2022/06/03 06:36:24;;;;;;;;;;;;;;;;;;335726;158;855204;-60
2022/06/03 06:37:25;;;;;;;;;;;;;;;;;;335399;158;856375;-59
2022/06/03 06:38:27;;;;;;;;;;;;;;;;;;337616;158;856025;-60
2022/06/03 06:39:28;;;;;;;;;;;;;;;;;;335936;158;855265;-59
2022/06/03 06:40:30;;;;;;;;;;;;;;;;;;335372;158;856033;-61
2022/06/03 06:41:31;;;;;;;;;;;;;;;;;;336312;158;855909;-60
2022/06/03 06:42:33;;;;;;;;;;;;;;;;;;333642;158;856064;-60
2022/06/03 06:43:35;;;;;;;;;;;;;;;;;;333725;158;855970;-62
2022/06/03 06:44:36;;;;;;;;;;;;;;;;;;336905;158;855762;-59
2022/06/03 06:45:37;;;;;;;;;;;;;;;;;;337875;158;855976;-60
2022/06/03 06:46:39;;;;;;;;;;;;;;;;;;337101;158;856324;-59
2022/06/03 06:47:40;;;;;;;;;;;;;;;;;;334967;159;855994;-58
2022/06/03 06:48:41;;;;;;;;;;;;;;;;;;333454;159;855877;-61
2022/06/03 06:49:43;;;;;;;;;;;;;;;;;;333140;159;856029;-61
2022/06/03 06:50:45;;;;;;;;;;;;;;;;;;334214;159;855888;-58
2022/06/03 06:51:48;;;;;;;;;;;;;;;;;;332836;159;855500;-58
2022/06/03 06:52:49;;;;;;;;;;;;;;;;;;335732;159;855056;-60
2022/06/03 06:53:50;;;;;;;;;;;;;;;;;;333798;159;855362;-59
2022/06/03 06:54:52;;;;;;;;;;;;;;;;;;332217;159;854941;-61
2022/06/03 06:55:53;;;;;;;;;;;;;;;;;;336009;159;855693;-60